GCXOGCLP

Guest
Details From GCXO - Tenerife Norte - Los Rodeos
To GCLP - Gran Canaria
Flight Number -
Tags generated
Created
Modified
Stats Distance 63 nm / 117 km
Max Altitude 1,900 ft / 579 m
Waypoints 3
Social Downloads 0
Likes 0
Share VATSIM

Download

Looking for another format? Having issues loading an existing format? Contact us
Advertisement - Login to hide

Notes

Basic altitude profile: - Ascent Rate: 2500ft/min - Ascent Speed: 250kts - Cruise Altitude: 35000ft - Cruise Speed: 420kts - Descent Rate: 1500ft/min - Descent Speed: 250kts Options: - Use NATs: no - Use PACOTS: no - Use low airways: yes - Use high airways: yes

Route

GCXO GDV GCLP

ID Type Via Altitude (ft/m) Position (lat/lon) Dist (leg/tot) Name
O GCXO APT - 0 / 0 28.48266 / -16.34154 - / 0 nm Tenerife Norte - Los Rodeos
GDV VOR - 1,900 / 579 28.07708 / -15.42899 54 / 54 nm GRAN CANARIA VOR-DME
O GCLP APT - 0 / 0 27.93154 / -15.38559 9 / 63 nm Gran Canaria

Altitude Profile

Advertisement - Login to hide

GCXO

Details ICAO GCXO (TFN)
Name Tenerife Norte - Los Rodeos
Region Canary Islands
Timezone Atlantic/Canary (UTC+0.0)
Stats Elevation 2,076 ft / 633 m (AMSL)
Location 28.482700° -16.341500°
Runways 1
Magnetic Variation 4.874° W

METAR

GCXO 181530Z 32017KT 280V010 9999 SCT021 SCT028 13/08 Q1024 NOSIG

Decode

TAF

TAF GCXO 181400Z 1815/1915 32016KT 9999 BKN015 TX15/1815Z TN09/1906Z

Decode

Departure Runways

ID Width Length Bearing (true/mag) Surface Threshold Overrun Markings Lighting
12 148 ft / 45 m 11,165 ft / 3,403 m 110.67° / 115.55° ASPHALT 0 ft / 0 m 197 ft / 60 m VISUAL CENTERLINE EDGE THRESHOLD SALS REIL-OMNI
30 148 ft / 45 m 11,165 ft / 3,403 m 290.69° / 295.56° ASPHALT 453 ft / 138 m 197 ft / 60 m VISUAL CENTERLINE EDGE THRESHOLD SALS REIL-OMNI

GCLP

Details ICAO GCLP (LPA)
Name Gran Canaria - Las Palmas
Region Canary Islands
Timezone Atlantic/Canary (UTC+0.0)
Stats Elevation 78 ft / 24 m (AMSL)
Location 27.931600° -15.385600°
Runways 2
Magnetic Variation 4.558° W

METAR

GCLP 181530Z 01019KT 9999 FEW030 BKN060 19/12 Q1022 NOSIG

Decode

TAF

TAF GCLP 181400Z 1815/1915 36018KT 9999 SCT035 TX20/1815Z TN15/1906Z= TAF AMD KFTK 181425Z 1814/1915 35006KT 9999 OVC008 QNH3005INS BECMG 1815/1816 07006KT 9999 SCT008 BKN012 QNH3000INS BECMG 1820/1821 10006KT 9999 BKN007 QNH2978INS BECMG 1907/1908 15012KT 6000 -RA BKN004 OVC007 QNH2961INS TX09/1900Z TN03/1814Z

Decode

Destination Runways

ID Width Length Bearing (true/mag) Surface Threshold Overrun Markings Lighting
03L 148 ft / 45 m 10,181 ft / 3,103 m 21.33° / 25.89° ASPHALT 0 ft / 0 m 656 ft / 200 m PREC-APP CENTERLINE EDGE THRESHOLD CALVERT REIL-OMNI
03R 148 ft / 45 m 10,181 ft / 3,103 m 21.33° / 25.89° ASPHALT 0 ft / 0 m 656 ft / 200 m PREC-APP CENTERLINE EDGE THRESHOLD CALVERT REIL-OMNI
21L 148 ft / 45 m 10,181 ft / 3,103 m 201.34° / 205.90° ASPHALT 0 ft / 0 m 666 ft / 203 m PREC-APP CENTERLINE EDGE THRESHOLD MALS REIL-OMNI
21R 148 ft / 45 m 10,181 ft / 3,103 m 201.34° / 205.90° ASPHALT 0 ft / 0 m 755 ft / 230 m PREC-APP CENTERLINE EDGE THRESHOLD MALS REIL-OMNI

Approach Navaids

Runway Type Ident Frequency Range Bearing (true/mag) Slope Elevation
03L GS ILP 109.90 MHz 10 nm / 19 km 21.66° / 26.22 ° 3.00° 102 ft / 31 m (AMSL)
03L DME ILP 109.90 MHz 18 nm / 33 km - - 102 ft / 31 m (AMSL)
03L LOC-ILS ILP 109.90 MHz 18 nm / 33 km 21.33° / 25.89 ° - 77 ft / 23 m (AMSL)
21R DME RLP 110.70 MHz 18 nm / 33 km - - 57 ft / 17 m (AMSL)
21R LOC-ILS RLP 110.70 MHz 18 nm / 33 km 201.32° / 205.88 ° - 77 ft / 23 m (AMSL)
21R GS RLP 110.70 MHz 10 nm / 19 km 201.66° / 206.22 ° 3.00° 77 ft / 23 m (AMSL)

Popular Alternatives